Time;durP1;ratioP1;P1;durP2;ratioP2;P2;SDS_P1;SDS_P2;PMS_P1;PMS_P2;Temp;Humidity;BMP_temperature;BMP_pressure;BME280_temperature;BME280_humidity;BME280_pressure;Samples;Min_cycle;Max_cycle;Signal;HPM_P1;HPM_P2
2023/06/05 00:01:09;;;;;;;6.40;5.10;;;;;;;11.97;100.00;97738.23;110358;1243;71038;-68
2023/06/05 00:03:50;;;;;;;5.90;3.90;;;;;;;11.96;100.00;97738.46;110259;1242;68860;-69
2023/06/05 00:06:21;;;;;;;5.10;3.80;;;;;;;11.95;100.00;97735.91;110254;1242;69154;-69
2023/06/05 00:08:52;;;;;;;4.90;3.40;;;;;;;11.96;100.00;97736.92;110192;1242;58947;-68
2023/06/05 00:11:23;;;;;;;4.00;3.30;;;;;;;11.97;100.00;97738.06;110331;1241;58870;-68
2023/06/05 00:13:53;;;;;;;6.10;4.00;;;;;;;11.98;100.00;97737.65;110266;1242;70991;-68
2023/06/05 00:16:23;;;;;;;5.20;3.90;;;;;;;11.98;100.00;97732.95;110290;1245;69292;-67
2023/06/05 00:18:54;;;;;;;6.70;4.20;;;;;;;11.96;100.00;97731.17;110144;1243;69085;-67
2023/06/05 00:21:25;;;;;;;6.90;4.70;;;;;;;11.95;100.00;97730.91;110272;1241;58948;-68
2023/06/05 00:23:56;;;;;;;6.60;4.70;;;;;;;11.92;100.00;97731.62;110212;1241;58931;-67
2023/06/05 00:26:26;;;;;;;7.10;4.60;;;;;;;11.89;100.00;97729.42;110261;1243;70618;-68
2023/06/05 00:28:57;;;;;;;7.60;5.20;;;;;;;11.84;100.00;97727.84;110122;1245;69240;-67
2023/06/05 00:31:30;;;;;;;7.10;5.20;;;;;;;11.80;100.00;97731.99;110092;1246;69285;-68
2023/06/05 00:34:00;;;;;;;6.40;4.20;;;;;;;11.74;100.00;97735.34;110157;1244;58932;-68
2023/06/05 00:36:32;;;;;;;6.20;4.60;;;;;;;11.73;100.00;97735.07;110135;1245;58841;-66
2023/06/05 00:39:03;;;;;;;6.90;4.30;;;;;;;11.74;100.00;97731.67;110166;1245;69843;-69
2023/06/05 00:41:33;;;;;;;5.90;4.60;;;;;;;11.74;100.00;97732.91;110163;1243;69286;-67
2023/06/05 00:44:02;;;;;;;6.40;5.00;;;;;;;11.71;100.00;97734.48;110107;1248;69214;-69
2023/06/05 00:46:32;;;;;;;9.70;4.90;;;;;;;11.69;100.00;97738.31;110113;1244;58935;-69
2023/06/05 00:49:03;;;;;;;6.60;4.50;;;;;;;11.67;100.00;97739.83;110133;1247;58932;-69
2023/06/05 00:51:35;;;;;;;7.20;5.00;;;;;;;11.66;100.00;97741.50;110126;1243;70950;-69
2023/06/05 00:54:07;;;;;;;5.90;4.70;;;;;;;11.64;100.00;97741.98;110138;1241;69344;-69
2023/06/05 00:56:42;;;;;;;10.50;5.30;;;;;;;11.63;100.00;97741.23;110149;1241;69286;-68
2023/06/05 00:59:13;;;;;;;8.30;5.80;;;;;;;11.60;100.00;97737.94;110158;1241;58969;-68
2023/06/05 01:01:47;;;;;;;8.20;5.30;;;;;;;11.57;100.00;97743.70;110186;1244;58943;-68
2023/06/05 01:04:18;;;;;;;25.80;8.60;;;;;;;11.55;100.00;97743.39;110159;1244;70470;-68
2023/06/05 01:06:53;;;;;;;10.30;5.90;;;;;;;11.50;100.00;97746.32;110117;1243;68322;-68
2023/06/05 01:09:25;;;;;;;8.70;5.70;;;;;;;11.48;100.00;97745.06;110140;1244;69242;-68
2023/06/05 01:12:11;;;;;;;10.30;6.60;;;;;;;11.47;100.00;97740.98;110116;1245;58932;-68
2023/06/05 01:14:49;;;;;;;7.90;5.90;;;;;;;11.46;100.00;97740.81;110148;1244;58893;-69
2023/06/05 01:17:24;;;;;;;8.00;5.70;;;;;;;11.44;100.00;97737.84;110180;1241;69808;-70
2023/06/05 01:19:58;;;;;;;7.60;5.30;;;;;;;11.43;100.00;97735.69;110148;1243;68687;-69
2023/06/05 01:22:30;;;;;;;8.70;4.90;;;;;;;11.43;100.00;97733.90;110158;1244;69186;-69
2023/06/05 01:25:02;;;;;;;8.40;4.90;;;;;;;11.44;100.00;97736.49;110166;1245;58925;-69
2023/06/05 01:27:54;;;;;;;10.30;5.50;;;;;;;11.45;100.00;97737.42;110168;1243;58892;-69
2023/06/05 01:30:41;;;;;;;8.80;6.10;;;;;;;11.47;100.00;97736.95;110134;1241;70624;-69
2023/06/05 01:33:25;;;;;;;7.50;5.60;;;;;;;11.46;100.00;97729.81;110139;1241;69114;-67
2023/06/05 01:36:04;;;;;;;6.70;5.40;;;;;;;11.48;100.00;97732.70;110136;1245;68524;-68
2023/06/05 01:38:39;;;;;;;7.00;5.80;;;;;;;11.48;100.00;97728.79;110185;1244;58960;-68
2023/06/05 01:41:16;;;;;;;7.20;4.70;;;;;;;11.48;100.00;97729.20;110074;1244;58846;-68
2023/06/05 01:43:50;;;;;;;6.60;4.90;;;;;;;11.46;100.00;97727.90;110157;1242;70604;-68
2023/06/05 01:46:23;;;;;;;7.50;5.40;;;;;;;11.45;100.00;97728.52;110131;1247;69274;-68
2023/06/05 01:48:55;;;;;;;5.20;4.10;;;;;;;11.44;100.00;97731.77;110141;1242;69325;-69
2023/06/05 01:51:27;;;;;;;8.30;5.40;;;;;;;11.42;100.00;97735.88;110109;1244;58961;-68
2023/06/05 01:53:58;;;;;;;8.10;5.20;;;;;;;11.41;100.00;97737.54;110133;1244;58879;-68
2023/06/05 01:56:32;;;;;;;8.00;5.10;;;;;;;11.41;100.00;97742.44;110110;1242;69913;-69
2023/06/05 01:59:07;;;;;;;6.60;4.40;;;;;;;11.39;100.00;97742.08;110155;1245;69269;-69
2023/06/05 02:01:38;;;;;;;7.70;5.30;;;;;;;11.36;100.00;97742.61;110076;1244;69123;-68
2023/06/05 02:04:11;;;;;;;8.40;5.30;;;;;;;11.35;100.00;97746.17;110138;1241;58923;-70
2023/06/05 02:06:43;;;;;;;6.50;5.30;;;;;;;11.33;100.00;97745.43;110165;1244;58843;-69
2023/06/05 02:09:14;;;;;;;8.70;5.80;;;;;;;11.31;100.00;97743.50;110221;1245;70430;-69
2023/06/05 02:11:47;;;;;;;5.50;4.30;;;;;;;11.29;100.00;97745.05;110189;1244;69074;-68
2023/06/05 02:14:22;;;;;;;5.20;4.00;;;;;;;11.26;100.00;97744.55;110207;1244;69271;-68
2023/06/05 02:16:54;;;;;;;5.60;4.10;;;;;;;11.23;100.00;97742.65;110147;1244;58861;-68
2023/06/05 02:19:26;;;;;;;7.30;4.50;;;;;;;11.19;100.00;97740.97;110166;1245;58949;-68
2023/06/05 02:21:58;;;;;;;6.30;4.70;;;;;;;11.17;100.00;97738.16;110141;1241;70068;-68
2023/06/05 02:24:29;;;;;;;10.10;4.70;;;;;;;11.14;100.00;97738.38;110160;1244;69243;-68
2023/06/05 02:27:01;;;;;;;8.20;5.50;;;;;;;11.11;100.00;97738.40;110191;1242;69112;-69
2023/06/05 02:29:33;;;;;;;10.60;5.40;;;;;;;11.09;100.00;97738.23;110151;1241;58940;-68
2023/06/05 02:32:06;;;;;;;6.70;5.40;;;;;;;11.05;100.00;97737.44;110159;1244;58888;-68
2023/06/05 02:34:37;;;;;;;6.10;4.70;;;;;;;11.04;100.00;97735.08;110174;1244;70427;-69
2023/06/05 02:37:11;;;;;;;6.50;5.00;;;;;;;11.03;100.00;97735.52;110154;1244;69231;-68
2023/06/05 02:39:44;;;;;;;6.90;5.70;;;;;;;11.03;100.00;97740.57;110101;1244;69300;-68
2023/06/05 02:42:15;;;;;;;6.70;5.60;;;;;;;11.04;100.00;97738.95;110142;1245;59007;-70
2023/06/05 02:44:46;;;;;;;8.00;5.70;;;;;;;11.08;100.00;97742.80;110162;1244;58882;-69
2023/06/05 02:47:16;;;;;;;8.90;6.80;;;;;;;11.12;100.00;97745.85;110148;1241;70608;-67
2023/06/05 02:49:49;;;;;;;7.50;5.90;;;;;;;11.13;100.00;97745.60;110090;1244;69238;-69
2023/06/05 02:52:21;;;;;;;15.40;9.90;;;;;;;11.13;100.00;97751.89;110100;1241;68424;-69
2023/06/05 02:54:52;;;;;;;8.70;7.10;;;;;;;11.13;100.00;97753.29;110124;1243;58940;-69
2023/06/05 02:57:26;;;;;;;8.70;7.10;;;;;;;11.14;100.00;97753.60;110163;1244;58876;-69
2023/06/05 02:59:56;;;;;;;8.70;6.30;;;;;;;11.15;100.00;97752.09;110189;1244;69771;-70
2023/06/05 03:02:28;;;;;;;8.20;6.30;;;;;;;11.19;100.00;97751.84;110082;1241;68911;-68
2023/06/05 03:04:58;;;;;;;6.50;5.00;;;;;;;11.23;100.00;97749.30;110142;1245;68752;-68
2023/06/05 03:07:29;;;;;;;6.10;4.90;;;;;;;11.27;100.00;97751.81;110098;1244;58951;-68
2023/06/05 03:10:01;;;;;;;7.50;6.10;;;;;;;11.33;100.00;97750.71;110117;1241;58882;-68
2023/06/05 03:12:31;;;;;;;8.90;6.70;;;;;;;11.40;100.00;97750.20;110116;1241;70640;-68
2023/06/05 03:15:03;;;;;;;9.60;6.20;;;;;;;11.45;100.00;97749.64;110106;1243;69233;-68
2023/06/05 03:17:34;;;;;;;8.10;6.50;;;;;;;11.50;100.00;97748.09;110108;1244;69126;-68
2023/06/05 03:20:09;;;;;;;8.50;5.60;;;;;;;11.57;100.00;97746.36;110148;1245;58968;-69
2023/06/05 03:22:41;;;;;;;7.60;6.20;;;;;;;11.66;100.00;97747.98;110198;1240;58906;-70
2023/06/05 03:25:14;;;;;;;9.50;7.60;;;;;;;11.78;100.00;97747.68;110149;1241;70716;-67
2023/06/05 03:27:46;;;;;;;10.00;7.30;;;;;;;11.87;100.00;97744.90;110126;1244;69275;-68
2023/06/05 03:30:18;;;;;;;7.60;6.40;;;;;;;11.96;100.00;97744.78;110114;1243;68609;-68
2023/06/05 03:32:51;;;;;;;8.00;6.20;;;;;;;12.05;100.00;97746.38;110192;1244;58982;-69
2023/06/05 03:35:22;;;;;;;6.40;5.10;;;;;;;12.14;100.00;97747.50;110123;1244;58884;-68
2023/06/05 03:37:53;;;;;;;7.50;6.10;;;;;;;12.22;100.00;97741.66;110118;1240;70555;-68
2023/06/05 03:40:24;;;;;;;6.50;5.60;;;;;;;12.31;100.00;97733.49;110267;1241;68606;-68
2023/06/05 03:42:57;;;;;;;7.40;6.30;;;;;;;12.39;100.00;97727.78;110238;1242;69151;-68
2023/06/05 03:45:29;;;;;;;8.30;6.40;;;;;;;12.49;100.00;97730.71;110126;1241;58898;-68
2023/06/05 03:48:02;;;;;;;9.90;7.20;;;;;;;12.60;100.00;97732.17;110176;1242;58912;-68
2023/06/05 03:50:37;;;;;;;7.30;6.40;;;;;;;12.71;100.00;97731.10;110235;1242;70686;-69
2023/06/05 03:53:09;;;;;;;9.70;8.10;;;;;;;12.86;100.00;97730.56;110161;1244;69134;-70
2023/06/05 03:55:45;;;;;;;9.00;6.70;;;;;;;12.97;100.00;97725.96;110097;1244;69311;-69
2023/06/05 03:58:23;;;;;;;9.40;7.50;;;;;;;13.12;100.00;97728.49;110146;1244;58888;-68
2023/06/05 04:00:54;;;;;;;9.60;7.20;;;;;;;13.25;100.00;97724.17;110151;1244;58872;-67
2023/06/05 04:03:27;;;;;;;8.40;7.20;;;;;;;13.37;100.00;97722.08;110207;1242;70037;-67
2023/06/05 04:05:58;;;;;;;7.40;6.60;;;;;;;13.49;100.00;97720.21;110231;1242;68174;-68
2023/06/05 04:08:28;;;;;;;8.20;6.40;;;;;;;13.62;100.00;97722.45;110232;1241;68740;-69
2023/06/05 04:10:58;;;;;;;6.80;6.00;;;;;;;13.74;100.00;97721.46;110248;1242;58976;-68
2023/06/05 04:13:30;;;;;;;7.00;5.40;;;;;;;13.87;100.00;97720.09;110235;1241;58881;-69
2023/06/05 04:16:01;;;;;;;;;;;;;;;13.98;100.00;97715.67;110121;1241;70566;-68
2023/06/05 04:18:31;;;;;;;7.00;5.80;;;;;;;14.09;100.00;97716.90;110187;1242;68463;-69
2023/06/05 04:21:01;;;;;;;6.20;4.90;;;;;;;14.21;100.00;97716.73;110245;1242;68630;-69
2023/06/05 04:23:30;;;;;;;;;;;;;;;14.36;100.00;97716.78;110254;1242;58874;-70
2023/06/05 04:26:00;;;;;;;9.40;6.00;;;;;;;14.48;100.00;97719.31;110267;1241;58894;-68
2023/06/05 04:28:31;;;;;;;7.60;5.50;;;;;;;14.53;100.00;97719.97;110162;1244;71154;-68
2023/06/05 04:31:03;;;;;;;7.50;5.80;;;;;;;14.59;100.00;97723.64;110139;1244;69262;-68
2023/06/05 04:33:33;;;;;;;7.80;5.80;;;;;;;14.68;100.00;97724.05;110275;1246;68298;-68
2023/06/05 04:36:05;;;;;;;8.10;6.10;;;;;;;14.78;100.00;97731.34;110213;1242;58875;-69
2023/06/05 04:38:34;;;;;;;6.50;5.80;;;;;;;14.88;100.00;97733.33;110284;1241;58892;-68
2023/06/05 04:41:04;;;;;;;6.50;5.70;;;;;;;14.95;100.00;97733.27;110121;1244;71152;-68
2023/06/05 04:43:35;;;;;;;10.00;6.10;;;;;;;15.05;100.00;97734.66;110147;1245;69119;-68
2023/06/05 04:46:05;;;;;;;7.40;5.90;;;;;;;15.15;100.00;97735.21;110237;1241;69620;-69
2023/06/05 04:48:36;;;;;;;6.50;5.80;;;;;;;15.24;100.00;97737.55;110110;1243;58904;-68
2023/06/05 04:51:07;;;;;;;6.70;5.70;;;;;;;15.42;100.00;97741.23;110295;1242;58904;-68
2023/06/05 04:53:37;;;;;;;7.30;6.10;;;;;;;15.58;100.00;97740.02;110126;1243;70437;-69
2023/06/05 04:56:07;;;;;;;6.60;4.70;;;;;;;15.72;100.00;97737.19;110252;1242;69613;-69
2023/06/05 04:58:39;;;;;;;7.70;5.80;;;;;;;15.88;100.00;97739.54;110128;1244;68526;-69
2023/06/05 05:01:08;;;;;;;7.10;5.70;;;;;;;15.93;100.00;97739.77;110151;1244;58909;-69
2023/06/05 05:03:42;;;;;;;7.40;5.60;;;;;;;16.00;100.00;97738.40;110275;1241;58865;-68
2023/06/05 05:06:16;;;;;;;6.60;4.90;;;;;;;16.16;100.00;97743.18;110153;1245;69883;-68
2023/06/05 05:08:48;;;;;;;6.20;5.10;;;;;;;16.34;100.00;97743.43;110121;1241;69194;-68
2023/06/05 05:11:18;;;;;;;6.70;5.60;;;;;;;16.57;100.00;97740.66;110313;1242;69165;-69
2023/06/05 05:13:49;;;;;;;7.00;5.30;;;;;;;16.75;100.00;97740.22;110115;1243;58939;-68
2023/06/05 05:16:18;;;;;;;6.30;5.20;;;;;;;16.99;100.00;97739.60;110285;1241;58929;-67
2023/06/05 05:18:47;;;;;;;6.00;5.30;;;;;;;17.15;100.00;97741.77;110283;1241;70482;-69
2023/06/05 05:21:18;;;;;;;7.30;5.30;;;;;;;17.17;100.00;97741.60;110139;1243;69102;-70
2023/06/05 05:23:48;;;;;;;4.90;4.30;;;;;;;17.42;100.00;97740.48;110129;1240;69887;-67
2023/06/05 05:26:18;;;;;;;5.70;5.10;;;;;;;17.66;100.00;97738.00;110104;1244;58893;-69
2023/06/05 05:28:48;;;;;;;6.50;5.10;;;;;;;17.90;100.00;97740.07;110184;1241;58851;-70
2023/06/05 05:31:17;;;;;;;6.30;5.10;;;;;;;18.00;99.32;97741.61;110268;1242;70723;-70
2023/06/05 05:33:47;;;;;;;5.90;5.00;;;;;;;18.14;99.09;97744.98;110148;1241;69105;-68
2023/06/05 05:36:18;;;;;;;6.30;5.50;;;;;;;18.30;98.41;97750.95;110150;1246;69301;-70
2023/06/05 05:38:47;;;;;;;6.60;4.80;;;;;;;18.34;95.40;97753.21;110269;1242;58937;-69
2023/06/05 05:41:16;;;;;;;5.40;4.60;;;;;;;18.36;91.14;97759.31;110178;1241;58941;-69
2023/06/05 05:43:46;;;;;;;6.50;5.30;;;;;;;18.25;93.36;97759.91;110343;1241;70787;-68
2023/06/05 05:46:16;;;;;;;5.90;5.10;;;;;;;18.26;95.62;97756.83;110326;1242;69708;-70
2023/06/05 05:48:45;;;;;;;6.20;5.60;;;;;;;18.20;96.09;97760.79;110307;1242;69843;-68
2023/06/05 05:51:14;;;;;;;6.10;4.60;;;;;;;18.15;94.83;97759.48;110280;1241;58893;-67
2023/06/05 05:53:43;;;;;;;8.40;5.20;;;;;;;18.23;95.57;97753.40;110258;1242;58885;-70
2023/06/05 05:56:12;;;;;;;5.90;4.60;;;;;;;18.07;93.40;97750.55;110271;1242;70967;-68
2023/06/05 05:58:43;;;;;;;5.80;5.30;;;;;;;18.05;93.82;97750.20;110329;1241;69206;-68
2023/06/05 06:01:13;;;;;;;6.40;4.30;;;;;;;18.12;95.32;97748.48;110251;1240;69289;-70
2023/06/05 06:03:42;;;;;;;5.90;5.30;;;;;;;18.17;94.11;97751.54;110344;1240;58875;-67
2023/06/05 06:06:12;;;;;;;5.80;4.70;;;;;;;18.26;93.03;97755.75;110327;1242;58821;-68
2023/06/05 06:08:41;;;;;;;6.10;4.90;;;;;;;18.35;93.69;97755.90;110296;1242;70569;-68
2023/06/05 06:11:10;;;;;;;5.20;4.60;;;;;;;18.56;92.90;97748.34;110312;1242;69204;-69
2023/06/05 06:13:41;;;;;;;5.70;4.80;;;;;;;18.53;91.15;97750.23;110251;1242;69874;-70
2023/06/05 06:16:10;;;;;;;5.00;4.50;;;;;;;18.57;90.65;97752.14;110297;1243;58886;-68
2023/06/05 06:18:40;;;;;;;5.60;4.50;;;;;;;18.81;90.60;97754.31;110275;1241;58921;-68
2023/06/05 06:21:09;;;;;;;4.20;3.50;;;;;;;19.18;90.58;97748.27;110276;1248;70632;-69
2023/06/05 06:23:39;;;;;;;4.60;3.80;;;;;;;19.58;86.71;97755.80;110278;1242;69201;-68
2023/06/05 06:26:08;;;;;;;4.00;3.40;;;;;;;20.11;87.23;97754.29;110240;1242;69861;-68
2023/06/05 06:28:37;;;;;;;5.20;3.30;;;;;;;20.62;84.97;97749.86;110356;1241;58953;-69
2023/06/05 06:31:07;;;;;;;4.10;3.50;;;;;;;21.13;81.38;97744.33;110032;1244;58992;-68
2023/06/05 06:33:37;;;;;;;3.60;3.00;;;;;;;21.55;80.33;97747.15;110156;1241;69448;-69
2023/06/05 06:36:08;;;;;;;4.70;3.40;;;;;;;21.82;73.12;97743.33;110144;1241;68592;-70
2023/06/05 06:38:37;;;;;;;3.70;3.30;;;;;;;21.96;71.27;97746.67;110138;1244;69311;-68
2023/06/05 06:41:06;;;;;;;4.40;2.90;;;;;;;22.11;69.15;97747.63;110135;1241;58936;-68
2023/06/05 06:43:35;;;;;;;5.00;3.10;;;;;;;22.40;68.73;97751.00;110127;1244;58974;-68
2023/06/05 06:46:06;;;;;;;3.00;2.70;;;;;;;22.76;71.49;97751.24;110135;1244;71004;-68
2023/06/05 06:48:35;;;;;;;3.20;2.50;;;;;;;23.17;70.14;97749.10;109754;1243;437959;-67
2023/06/05 06:51:10;;;;;;;3.40;2.90;;;;;;;23.36;63.32;97743.93;110190;1240;69277;-70
2023/06/05 06:54:12;;;;;;;5.30;3.60;;;;;;;23.74;63.72;97748.88;109754;1246;58891;-69
2023/06/05 06:56:42;;;;;;;3.70;2.80;;;;;;;24.06;63.44;97748.05;110279;1240;58860;-68
2023/06/05 06:59:13;;;;;;;3.40;2.90;;;;;;;24.41;62.25;97753.05;110176;1241;71060;-67
2023/06/05 07:01:45;;;;;;;4.00;2.70;;;;;;;24.66;61.95;97753.65;110158;1242;69750;-67
2023/06/05 07:04:19;;;;;;;4.60;3.00;;;;;;;24.75;60.11;97750.22;110170;1240;70014;-68
2023/06/05 07:06:49;;;;;;;3.70;2.90;;;;;;;24.66;58.80;97751.02;110151;1240;58857;-69
2023/06/05 07:09:17;;;;;;;3.10;2.70;;;;;;;24.40;58.77;97748.75;110178;1243;58874;-69
2023/06/05 07:11:47;;;;;;;;;;;;;;;23.93;58.52;97746.47;110126;1242;71139;-69
2023/06/05 07:14:16;;;;;;;3.10;2.60;;;;;;;24.26;60.56;97741.77;110175;1240;68538;-68
2023/06/05 07:16:45;;;;;;;4.60;2.90;;;;;;;24.51;60.01;97742.77;110126;1242;70195;-69
2023/06/05 07:19:15;;;;;;;3.20;2.50;;;;;;;24.87;59.68;97734.61;110130;1241;58932;-67
2023/06/05 07:21:45;;;;;;;2.70;2.20;;;;;;;24.81;57.34;97733.28;110165;1248;58932;-67
2023/06/05 07:24:14;;;;;;;3.00;2.60;;;;;;;24.32;57.12;97734.17;110142;1242;71170;-68
2023/06/05 07:26:43;;;;;;;2.70;2.10;;;;;;;24.59;57.89;97731.98;110132;1243;69204;-68
2023/06/05 07:29:12;;;;;;;3.10;2.60;;;;;;;24.71;58.19;97724.73;110147;1242;68620;-69
2023/06/05 07:31:42;;;;;;;3.10;2.20;;;;;;;25.06;57.72;97721.52;110177;1240;58930;-69
2023/06/05 07:34:12;;;;;;;2.70;2.20;;;;;;;25.26;55.88;97720.46;110178;1242;58861;-69
2023/06/05 07:36:44;;;;;;;2.90;2.00;;;;;;;25.47;55.28;97720.91;110162;1241;71072;-68
2023/06/05 07:39:15;;;;;;;3.30;2.50;;;;;;;25.52;54.34;97722.15;110194;1242;69081;-69
2023/06/05 07:41:44;;;;;;;2.90;2.40;;;;;;;25.55;53.46;97717.77;110182;1242;69259;-69
2023/06/05 07:44:15;;;;;;;;;;;;;;;25.70;53.87;97718.70;110174;1240;58946;-69
2023/06/05 07:46:46;;;;;;;3.50;2.30;;;;;;;25.77;53.01;97715.08;110202;1240;58925;-70
2023/06/05 07:49:15;;;;;;;2.60;2.20;;;;;;;25.94;52.70;97720.29;110176;1242;70536;-70
2023/06/05 07:51:47;;;;;;;2.70;2.40;;;;;;;26.13;51.90;97720.34;110183;1243;69205;-68
2023/06/05 07:54:16;;;;;;;2.90;2.20;;;;;;;26.37;51.65;97717.79;110164;1242;69178;-70
2023/06/05 07:56:48;;;;;;;3.00;2.30;;;;;;;26.20;51.46;97719.70;110183;1243;58891;-69
2023/06/05 07:59:22;;;;;;;2.90;2.30;;;;;;;26.15;52.77;97715.05;110177;1242;58868;-69
2023/06/05 08:01:51;;;;;;;3.80;2.60;;;;;;;26.57;53.14;97715.34;110194;1242;70422;-69
2023/06/05 08:04:24;;;;;;;3.10;2.70;;;;;;;26.91;51.46;97720.09;110135;1240;69215;-68
2023/06/05 08:06:54;;;;;;;3.50;2.60;;;;;;;27.08;49.06;97713.11;110214;1245;69853;-68
2023/06/05 08:09:23;;;;;;;3.50;2.50;;;;;;;27.15;49.56;97714.67;110147;1242;58936;-70
2023/06/05 08:11:52;;;;;;;;;;;;;;;26.90;49.12;97711.59;110195;1244;59290;-69
2023/06/05 08:14:21;;;;;;;5.00;2.70;;;;;;;26.55;49.80;97718.55;110150;1242;70942;-69
2023/06/05 08:16:50;;;;;;;3.20;2.60;;;;;;;26.59;50.35;97718.20;110142;1242;69202;-70
2023/06/05 08:19:18;;;;;;;;;;;;;;;26.48;51.59;97716.78;110152;1243;69947;-69
2023/06/05 08:21:52;;;;;;;4.70;2.70;;;;;;;26.46;52.72;97720.40;110215;1242;58954;-69
2023/06/05 08:24:20;;;;;;;3.50;3.00;;;;;;;27.00;51.07;97717.08;110167;1240;58930;-69
2023/06/05 08:26:50;;;;;;;3.50;2.90;;;;;;;26.68;50.14;97716.92;110151;1240;71178;-70
2023/06/05 08:29:19;;;;;;;3.10;2.60;;;;;;;26.76;49.90;97715.80;110174;1243;69068;-69
2023/06/05 08:31:48;;;;;;;3.90;2.90;;;;;;;27.15;50.19;97712.13;110156;1240;69102;-69
2023/06/05 08:34:17;;;;;;;3.70;2.80;;;;;;;27.41;47.85;97712.02;110147;1240;58938;-69
2023/06/05 08:36:46;;;;;;;3.00;2.30;;;;;;;27.53;47.55;97717.34;110167;1240;58958;-68
2023/06/05 08:39:15;;;;;;;3.30;2.70;;;;;;;27.68;46.03;97717.05;110200;1242;71405;-69
2023/06/05 08:41:44;;;;;;;;;;;;;;;27.84;45.95;97710.54;110174;1241;70163;-69
2023/06/05 08:44:13;;;;;;;3.70;2.80;;;;;;;27.69;44.77;97707.45;110177;1242;68375;-70
2023/06/05 08:46:43;;;;;;;3.70;2.80;;;;;;;27.47;46.14;97706.45;110183;1243;58940;-69
2023/06/05 08:49:17;;;;;;;3.20;2.60;;;;;;;27.30;46.50;97704.00;110040;1244;58798;-70
2023/06/05 08:51:50;;;;;;;2.80;2.40;;;;;;;27.37;45.60;97704.14;110193;1242;71166;-69
2023/06/05 08:54:20;;;;;;;2.60;2.20;;;;;;;26.70;48.02;97702.03;110197;1243;69716;-69
2023/06/05 08:56:49;;;;;;;3.30;2.80;;;;;;;27.34;46.83;97697.70;110138;1240;68825;-69
2023/06/05 08:59:20;;;;;;;2.60;2.10;;;;;;;27.67;45.06;97699.08;110186;1240;58938;-69
2023/06/05 09:01:50;;;;;;;2.80;2.50;;;;;;;27.95;45.10;97703.50;110164;1242;59280;-69
2023/06/05 09:04:19;;;;;;;3.00;2.30;;;;;;;28.19;44.27;97701.08;110161;1242;70126;-70
2023/06/05 09:06:52;;;;;;;3.10;2.50;;;;;;;28.36;44.16;97701.52;110162;1242;69696;-68
2023/06/05 09:09:21;;;;;;;3.60;2.70;;;;;;;28.67;43.87;97694.36;110181;1242;69227;-69
2023/06/05 09:12:08;;;;;;;2.70;2.30;;;;;;;28.50;41.45;97696.34;110171;1240;58931;-68
2023/06/05 09:14:37;;;;;;;2.90;2.20;;;;;;;28.53;41.49;97696.27;110179;1242;58865;-69
2023/06/05 09:17:12;;;;;;;3.40;2.40;;;;;;;28.65;41.67;97692.46;110185;1242;69560;-68
2023/06/05 09:19:47;;;;;;;3.70;2.90;;;;;;;28.64;41.07;97688.30;110173;1242;69822;-69
2023/06/05 09:22:35;;;;;;;2.70;2.10;;;;;;;28.42;40.77;97688.16;110114;1240;69645;-68
2023/06/05 09:25:05;;;;;;;2.40;2.20;;;;;;;28.49;41.39;97688.45;110142;1242;58891;-70
2023/06/05 09:27:35;;;;;;;3.30;2.80;;;;;;;28.98;41.77;97683.07;110203;1242;59272;-70
2023/06/05 09:30:05;;;;;;;4.60;2.60;;;;;;;29.24;42.01;97682.35;110156;1242;71160;-70
2023/06/05 09:32:37;;;;;;;3.90;2.80;;;;;;;29.22;40.79;97684.31;110147;1240;69816;-70
2023/06/05 09:35:07;;;;;;;3.40;3.10;;;;;;;29.13;41.24;97678.15;110173;1240;69879;-69
2023/06/05 09:37:37;;;;;;;3.20;2.90;;;;;;;28.98;41.14;97675.90;110156;1242;58939;-70
2023/06/05 09:40:08;;;;;;;2.90;2.50;;;;;;;28.69;42.15;97678.22;110157;1240;58919;-71
2023/06/05 09:42:40;;;;;;;3.40;2.40;;;;;;;28.42;42.85;97680.18;110184;1240;71182;-69
2023/06/05 09:45:10;;;;;;;3.80;2.50;;;;;;;28.66;43.18;97673.48;110184;1242;68244;-69
2023/06/05 09:47:39;;;;;;;4.20;2.90;;;;;;;28.85;42.15;97671.63;110171;1240;69104;-71
2023/06/05 09:50:24;;;;;;;3.30;2.80;;;;;;;28.75;43.04;97670.88;110174;1242;58865;-69
2023/06/05 09:52:56;;;;;;;2.30;2.10;;;;;;;29.03;41.65;97667.57;110186;1242;58930;-70
2023/06/05 09:55:25;;;;;;;3.50;2.70;;;;;;;29.39;40.70;97665.38;110181;1243;70589;-69
2023/06/05 09:57:57;;;;;;;3.40;2.30;;;;;;;29.61;39.00;97666.64;110162;1242;69301;-69
2023/06/05 10:00:28;;;;;;;3.70;3.00;;;;;;;29.25;39.60;97664.54;110108;1245;69331;-68
2023/06/05 10:02:59;;;;;;;4.00;2.70;;;;;;;29.19;39.38;97662.73;110101;1242;59298;-68
2023/06/05 10:05:29;;;;;;;2.50;2.00;;;;;;;28.98;38.28;97655.95;110155;1242;58884;-69
2023/06/05 10:07:58;;;;;;;3.30;2.50;;;;;;;28.86;39.63;97655.66;110158;1242;71172;-69
2023/06/05 10:10:27;;;;;;;3.30;2.60;;;;;;;29.13;39.05;97654.52;110183;1242;70061;-68
2023/06/05 10:12:57;;;;;;;2.80;2.30;;;;;;;28.54;37.81;97652.22;110188;1242;69881;-68
2023/06/05 10:15:27;;;;;;;3.50;2.70;;;;;;;28.31;37.89;97646.69;110164;1241;58888;-67
2023/06/05 10:17:56;;;;;;;2.60;2.30;;;;;;;28.82;38.00;97639.23;110138;1240;58826;-70
2023/06/05 10:20:27;;;;;;;3.40;3.00;;;;;;;29.23;38.66;97636.73;110172;1243;70360;-70
2023/06/05 10:22:57;;;;;;;4.00;2.70;;;;;;;29.41;37.72;97635.63;110184;1240;69412;-69
2023/06/05 10:25:26;;;;;;;3.40;2.80;;;;;;;29.35;36.90;97629.83;110188;1242;70085;-69
2023/06/05 10:28:25;;;;;;;2.90;2.50;;;;;;;29.24;36.91;97626.98;110110;1243;58886;-68
2023/06/05 10:31:15;;;;;;;3.00;2.40;;;;;;;29.02;37.65;97624.01;110184;1241;58841;-68
2023/06/05 10:33:48;;;;;;;3.00;2.60;;;;;;;28.91;37.69;97625.01;110020;1240;71153;-68
2023/06/05 10:36:26;;;;;;;2.60;2.40;;;;;;;28.90;37.41;97624.95;110200;1240;69296;-68
2023/06/05 10:38:55;;;;;;;3.30;2.40;;;;;;;28.82;37.75;97619.30;110155;1241;69267;-68
2023/06/05 10:41:25;;;;;;;;;;;;;;;28.66;37.18;97619.23;110121;1243;58955;-70
2023/06/05 10:43:55;;;;;;;3.30;2.10;;;;;;;28.63;37.52;97613.45;110142;1240;58935;-68
2023/06/05 10:46:28;;;;;;;2.60;2.00;;;;;;;28.38;39.02;97607.87;110166;1240;71504;-70
2023/06/05 10:49:17;;;;;;;3.30;2.40;;;;;;;28.63;39.87;97603.65;110194;1241;70172;-70
2023/06/05 10:51:53;;;;;;;2.90;1.80;;;;;;;28.72;37.20;97607.65;110251;1240;69342;-67
2023/06/05 10:54:22;;;;;;;2.80;2.40;;;;;;;28.59;38.96;97605.59;110208;1240;58936;-70
2023/06/05 10:57:02;;;;;;;3.90;2.50;;;;;;;28.63;39.83;97600.36;110191;1240;58837;-70
2023/06/05 10:59:36;;;;;;;2.40;2.20;;;;;;;28.73;39.39;97595.90;110153;1241;71534;-68
2023/06/05 11:02:23;;;;;;;3.10;2.60;;;;;;;29.10;38.91;97597.99;110166;1243;69059;-69
2023/06/05 11:04:53;;;;;;;3.70;2.10;;;;;;;29.03;38.22;97597.70;110112;1244;69305;-69
2023/06/05 11:07:21;;;;;;;;;;;;;;;29.02;37.70;97597.06;110167;1240;58926;-69
2023/06/05 11:10:15;;;;;;;3.30;2.30;;;;;;;28.94;38.14;97595.14;110147;1243;58920;-70
2023/06/05 11:12:44;;;;;;;2.60;2.00;;;;;;;28.80;37.22;97602.07;110159;1240;70386;-66
2023/06/05 11:15:14;;;;;;;3.90;2.20;;;;;;;28.78;36.88;97603.04;110153;1243;69814;-68
2023/06/05 11:17:47;;;;;;;2.80;2.30;;;;;;;28.89;37.29;97600.78;110174;1242;69892;-69
2023/06/05 11:20:25;;;;;;;3.40;2.50;;;;;;;28.96;38.14;97600.25;110168;1242;58941;-69
2023/06/05 11:22:57;;;;;;;4.50;2.50;;;;;;;28.98;37.77;97597.73;110162;1242;58872;-67
2023/06/05 11:25:28;;;;;;;3.20;2.80;;;;;;;28.16;38.33;97602.98;110152;1240;69843;-69
2023/06/05 11:28:04;;;;;;;3.30;2.50;;;;;;;27.83;39.16;97606.76;110186;1242;69275;-69
2023/06/05 11:30:45;;;;;;;3.40;1.90;;;;;;;27.90;39.01;97604.59;110190;1243;69672;-68
2023/06/05 11:33:20;;;;;;;3.60;2.10;;;;;;;27.88;38.04;97603.61;110176;1243;58897;-69
2023/06/05 11:35:52;;;;;;;2.30;1.90;;;;;;;28.47;39.47;97592.36;110181;1242;58859;-69
2023/06/05 11:38:22;;;;;;;2.40;1.80;;;;;;;28.87;37.54;97591.73;110187;1240;70547;-70
2023/06/05 11:40:55;;;;;;;3.20;2.30;;;;;;;29.17;37.17;97588.48;110161;1243;68340;-68
2023/06/05 11:43:24;;;;;;;2.40;2.10;;;;;;;29.09;37.09;97585.41;110132;1240;69269;-70
2023/06/05 11:45:57;;;;;;;2.60;2.10;;;;;;;28.98;36.61;97582.90;110176;1243;58901;-69